sensor_id;sensor_type;location;lat;lon;timestamp;P1;durP1;ratioP1;P2;durP2;ratioP2
5630;SDS011;2837;50.990;7.124;2023-01-24T06:00:22;161.30;;;8.60;;
5630;SDS011;2837;50.990;7.124;2023-01-24T06:02:48;162.77;;;7.97;;
5630;SDS011;2837;50.990;7.124;2023-01-24T06:05:13;160.70;;;8.37;;
5630;SDS011;2837;50.990;7.124;2023-01-24T06:07:39;160.83;;;8.10;;
5630;SDS011;2837;50.990;7.124;2023-01-24T06:10:04;161.50;;;8.87;;
5630;SDS011;2837;50.990;7.124;2023-01-24T06:12:30;160.80;;;8.07;;
5630;SDS011;2837;50.990;7.124;2023-01-24T06:14:57;161.70;;;7.93;;
5630;SDS011;2837;50.990;7.124;2023-01-24T06:17:22;161.50;;;7.70;;
5630;SDS011;2837;50.990;7.124;2023-01-24T06:19:48;160.73;;;8.33;;
5630;SDS011;2837;50.990;7.124;2023-01-24T06:24:47;160.47;;;8.13;;
5630;SDS011;2837;50.990;7.124;2023-01-24T06:27:13;161.03;;;8.20;;
5630;SDS011;2837;50.990;7.124;2023-01-24T06:29:39;160.77;;;8.10;;
5630;SDS011;2837;50.990;7.124;2023-01-24T06:40:11;160.87;;;7.87;;
5630;SDS011;2837;50.990;7.124;2023-01-24T06:42:38;160.70;;;8.30;;
5630;SDS011;2837;50.990;7.124;2023-01-24T06:45:04;162.53;;;8.47;;
5630;SDS011;2837;50.990;7.124;2023-01-24T06:47:30;161.07;;;8.20;;
5630;SDS011;2837;50.990;7.124;2023-01-24T06:49:56;161.03;;;8.07;;
5630;SDS011;2837;50.990;7.124;2023-01-24T06:52:22;160.70;;;8.23;;
5630;SDS011;2837;50.990;7.124;2023-01-24T06:54:47;161.27;;;8.17;;
5630;SDS011;2837;50.990;7.124;2023-01-24T06:57:13;160.43;;;7.77;;
5630;SDS011;2837;50.990;7.124;2023-01-24T06:59:38;161.27;;;7.90;;
5630;SDS011;2837;50.990;7.124;2023-01-24T07:02:04;162.37;;;8.57;;
5630;SDS011;2837;50.990;7.124;2023-01-24T07:04:30;161.17;;;8.60;;
5630;SDS011;2837;50.990;7.124;2023-01-24T07:06:56;160.37;;;8.07;;
5630;SDS011;2837;50.990;7.124;2023-01-24T07:09:22;162.03;;;8.70;;
5630;SDS011;2837;50.990;7.124;2023-01-24T07:11:48;161.93;;;7.97;;
5630;SDS011;2837;50.990;7.124;2023-01-24T07:14:17;160.00;;;8.20;;
5630;SDS011;2837;50.990;7.124;2023-01-24T07:16:43;161.23;;;8.40;;
5630;SDS011;2837;50.990;7.124;2023-01-24T07:19:12;160.77;;;8.23;;
5630;SDS011;2837;50.990;7.124;2023-01-24T07:21:40;161.90;;;8.93;;
5630;SDS011;2837;50.990;7.124;2023-01-24T07:24:11;161.30;;;8.60;;
5630;SDS011;2837;50.990;7.124;2023-01-24T07:26:42;161.37;;;8.70;;
5630;SDS011;2837;50.990;7.124;2023-01-24T07:29:08;164.23;;;9.40;;
5630;SDS011;2837;50.990;7.124;2023-01-24T07:31:34;161.30;;;8.50;;
5630;SDS011;2837;50.990;7.124;2023-01-24T07:34:00;161.27;;;9.17;;
5630;SDS011;2837;50.990;7.124;2023-01-24T07:36:25;162.33;;;9.10;;
5630;SDS011;2837;50.990;7.124;2023-01-24T07:38:54;161.07;;;8.30;;
5630;SDS011;2837;50.990;7.124;2023-01-24T07:41:20;162.37;;;9.00;;
5630;SDS011;2837;50.990;7.124;2023-01-24T07:43:46;162.43;;;8.73;;
5630;SDS011;2837;50.990;7.124;2023-01-24T07:46:11;161.77;;;8.70;;
5630;SDS011;2837;50.990;7.124;2023-01-24T07:48:37;161.30;;;8.10;;
5630;SDS011;2837;50.990;7.124;2023-01-24T07:51:03;161.57;;;8.60;;
5630;SDS011;2837;50.990;7.124;2023-01-24T07:53:28;161.17;;;8.53;;
5630;SDS011;2837;50.990;7.124;2023-01-24T07:55:58;161.57;;;8.40;;
5630;SDS011;2837;50.990;7.124;2023-01-24T07:58:24;160.83;;;8.47;;
5630;SDS011;2837;50.990;7.124;2023-01-24T08:00:50;161.33;;;8.70;;
5630;SDS011;2837;50.990;7.124;2023-01-24T08:03:15;160.33;;;8.30;;
5630;SDS011;2837;50.990;7.124;2023-01-24T08:05:41;160.80;;;8.37;;
5630;SDS011;2837;50.990;7.124;2023-01-24T08:08:07;161.10;;;8.30;;
5630;SDS011;2837;50.990;7.124;2023-01-24T08:10:32;161.87;;;8.53;;
5630;SDS011;2837;50.990;7.124;2023-01-24T08:12:58;161.90;;;8.77;;
5630;SDS011;2837;50.990;7.124;2023-01-24T08:15:23;161.60;;;8.83;;
5630;SDS011;2837;50.990;7.124;2023-01-24T08:17:49;160.73;;;8.50;;
5630;SDS011;2837;50.990;7.124;2023-01-24T08:20:14;161.57;;;8.40;;
5630;SDS011;2837;50.990;7.124;2023-01-24T08:22:40;160.10;;;8.27;;
5630;SDS011;2837;50.990;7.124;2023-01-24T08:25:07;161.30;;;8.63;;
5630;SDS011;2837;50.990;7.124;2023-01-24T08:27:33;162.73;;;8.93;;
5630;SDS011;2837;50.990;7.124;2023-01-24T08:29:59;160.80;;;8.90;;
5630;SDS011;2837;50.990;7.124;2023-01-24T08:32:24;161.30;;;8.73;;
5630;SDS011;2837;50.990;7.124;2023-01-24T08:34:50;161.33;;;9.00;;
5630;SDS011;2837;50.990;7.124;2023-01-24T08:37:15;161.17;;;8.53;;
5630;SDS011;2837;50.990;7.124;2023-01-24T08:39:41;161.97;;;8.50;;
5630;SDS011;2837;50.990;7.124;2023-01-24T08:42:07;161.20;;;8.60;;
5630;SDS011;2837;50.990;7.124;2023-01-24T08:44:33;163.53;;;9.60;;
5630;SDS011;2837;50.990;7.124;2023-01-24T08:46:59;162.00;;;8.60;;
5630;SDS011;2837;50.990;7.124;2023-01-24T08:49:24;160.70;;;7.80;;
5630;SDS011;2837;50.990;7.124;2023-01-24T08:51:50;161.10;;;8.40;;
5630;SDS011;2837;50.990;7.124;2023-01-24T08:54:23;161.23;;;8.73;;
5630;SDS011;2837;50.990;7.124;2023-01-24T08:57:00;161.17;;;8.43;;
5630;SDS011;2837;50.990;7.124;2023-01-24T08:59:26;160.87;;;8.60;;
5630;SDS011;2837;50.990;7.124;2023-01-24T09:01:51;162.80;;;8.70;;
5630;SDS011;2837;50.990;7.124;2023-01-24T09:04:17;160.67;;;8.43;;
5630;SDS011;2837;50.990;7.124;2023-01-24T09:06:43;161.37;;;8.50;;
5630;SDS011;2837;50.990;7.124;2023-01-24T09:09:08;160.97;;;7.90;;
5630;SDS011;2837;50.990;7.124;2023-01-24T09:11:34;161.63;;;8.53;;
5630;SDS011;2837;50.990;7.124;2023-01-24T09:13:59;160.50;;;8.57;;
5630;SDS011;2837;50.990;7.124;2023-01-24T09:16:25;162.67;;;9.03;;
5630;SDS011;2837;50.990;7.124;2023-01-24T09:18:52;162.03;;;8.67;;
5630;SDS011;2837;50.990;7.124;2023-01-24T09:21:19;160.57;;;7.77;;
5630;SDS011;2837;50.990;7.124;2023-01-24T09:23:44;161.30;;;8.50;;
5630;SDS011;2837;50.990;7.124;2023-01-24T09:26:10;161.40;;;8.17;;
5630;SDS011;2837;50.990;7.124;2023-01-24T09:28:35;160.93;;;8.13;;
5630;SDS011;2837;50.990;7.124;2023-01-24T09:31:01;161.67;;;8.53;;
5630;SDS011;2837;50.990;7.124;2023-01-24T09:33:27;161.93;;;8.70;;
5630;SDS011;2837;50.990;7.124;2023-01-24T09:35:53;161.13;;;8.10;;
5630;SDS011;2837;50.990;7.124;2023-01-24T09:38:22;161.70;;;8.77;;
5630;SDS011;2837;50.990;7.124;2023-01-24T09:43:52;162.07;;;8.73;;
5630;SDS011;2837;50.990;7.124;2023-01-24T09:46:26;161.07;;;8.80;;
5630;SDS011;2837;50.990;7.124;2023-01-24T09:51:36;162.57;;;9.33;;
5630;SDS011;2837;50.990;7.124;2023-01-24T09:54:09;160.93;;;8.33;;
5630;SDS011;2837;50.990;7.124;2023-01-24T09:56:46;160.80;;;8.10;;
5630;SDS011;2837;50.990;7.124;2023-01-24T09:59:16;161.63;;;8.53;;
5630;SDS011;2837;50.990;7.124;2023-01-24T10:01:51;161.23;;;8.40;;
5630;SDS011;2837;50.990;7.124;2023-01-24T10:04:21;161.17;;;8.57;;
5630;SDS011;2837;50.990;7.124;2023-01-24T10:12:37;161.67;;;7.90;;
5630;SDS011;2837;50.990;7.124;2023-01-24T10:15:26;160.27;;;7.67;;
5630;SDS011;2837;50.990;7.124;2023-01-24T10:23:51;160.87;;;8.20;;
5630;SDS011;2837;50.990;7.124;2023-01-24T10:26:47;160.80;;;8.20;;
5630;SDS011;2837;50.990;7.124;2023-01-24T10:31:56;159.87;;;7.67;;
5630;SDS011;2837;50.990;7.124;2023-01-24T10:34:39;160.53;;;7.97;;
5630;SDS011;2837;50.990;7.124;2023-01-24T10:37:24;163.30;;;8.97;;
5630;SDS011;2837;50.990;7.124;2023-01-24T10:39:51;162.07;;;8.57;;
5630;SDS011;2837;50.990;7.124;2023-01-24T10:42:21;160.47;;;8.07;;
5630;SDS011;2837;50.990;7.124;2023-01-24T10:44:49;159.90;;;8.30;;
5630;SDS011;2837;50.990;7.124;2023-01-24T10:50:04;159.83;;;8.00;;
5630;SDS011;2837;50.990;7.124;2023-01-24T10:52:40;161.87;;;8.77;;
5630;SDS011;2837;50.990;7.124;2023-01-24T10:55:21;159.60;;;8.30;;
5630;SDS011;2837;50.990;7.124;2023-01-24T10:58:02;160.37;;;8.00;;
5630;SDS011;2837;50.990;7.124;2023-01-24T11:00:44;159.63;;;8.00;;
5630;SDS011;2837;50.990;7.124;2023-01-24T11:03:17;160.63;;;8.67;;
5630;SDS011;2837;50.990;7.124;2023-01-24T11:05:48;161.00;;;8.57;;
5630;SDS011;2837;50.990;7.124;2023-01-24T11:08:23;160.27;;;8.43;;
5630;SDS011;2837;50.990;7.124;2023-01-24T11:10:51;159.40;;;7.70;;
5630;SDS011;2837;50.990;7.124;2023-01-24T11:16:17;161.07;;;8.10;;
5630;SDS011;2837;50.990;7.124;2023-01-24T11:21:56;161.37;;;8.50;;
5630;SDS011;2837;50.990;7.124;2023-01-24T11:24:24;160.57;;;8.33;;
5630;SDS011;2837;50.990;7.124;2023-01-24T11:26:52;160.90;;;8.60;;
5630;SDS011;2837;50.990;7.124;2023-01-24T11:29:20;159.80;;;7.87;;
5630;SDS011;2837;50.990;7.124;2023-01-24T11:31:47;160.20;;;8.20;;
5630;SDS011;2837;50.990;7.124;2023-01-24T11:45:21;160.70;;;8.70;;
5630;SDS011;2837;50.990;7.124;2023-01-24T11:48:12;163.63;;;8.87;;
5630;SDS011;2837;50.990;7.124;2023-01-24T11:59:08;160.83;;;8.50;;
5630;SDS011;2837;50.990;7.124;2023-01-24T12:07:40;162.40;;;8.70;;
5630;SDS011;2837;50.990;7.124;2023-01-24T12:10:30;159.73;;;7.57;;
5630;SDS011;2837;50.990;7.124;2023-01-24T12:15:33;160.47;;;8.43;;
5630;SDS011;2837;50.990;7.124;2023-01-24T12:21:03;162.50;;;8.30;;
5630;SDS011;2837;50.990;7.124;2023-01-24T12:23:35;160.37;;;8.37;;
5630;SDS011;2837;50.990;7.124;2023-01-24T12:26:15;161.70;;;8.47;;
5630;SDS011;2837;50.990;7.124;2023-01-24T12:29:02;159.20;;;8.30;;
5630;SDS011;2837;50.990;7.124;2023-01-24T12:31:42;159.83;;;7.93;;
5630;SDS011;2837;50.990;7.124;2023-01-24T12:39:46;160.07;;;8.40;;
5630;SDS011;2837;50.990;7.124;2023-01-24T12:45:36;161.03;;;8.60;;
5630;SDS011;2837;50.990;7.124;2023-01-24T12:48:15;160.70;;;8.33;;
5630;SDS011;2837;50.990;7.124;2023-01-24T12:50:58;159.63;;;7.50;;
5630;SDS011;2837;50.990;7.124;2023-01-24T12:53:31;160.27;;;8.30;;
5630;SDS011;2837;50.990;7.124;2023-01-24T12:56:15;159.70;;;7.77;;
5630;SDS011;2837;50.990;7.124;2023-01-24T12:58:46;161.03;;;8.63;;
5630;SDS011;2837;50.990;7.124;2023-01-24T13:10:09;159.43;;;7.30;;
5630;SDS011;2837;50.990;7.124;2023-01-24T13:13:01;161.47;;;8.37;;
5630;SDS011;2837;50.990;7.124;2023-01-24T13:15:53;159.73;;;7.87;;
5630;SDS011;2837;50.990;7.124;2023-01-24T13:23:28;160.90;;;8.70;;
5630;SDS011;2837;50.990;7.124;2023-01-24T13:28:51;160.00;;;8.20;;
5630;SDS011;2837;50.990;7.124;2023-01-24T13:34:33;158.87;;;8.00;;
5630;SDS011;2837;50.990;7.124;2023-01-24T13:37:02;160.33;;;8.60;;
5630;SDS011;2837;50.990;7.124;2023-01-24T13:44:55;160.67;;;8.37;;
5630;SDS011;2837;50.990;7.124;2023-01-24T13:47:22;159.27;;;7.83;;
5630;SDS011;2837;50.990;7.124;2023-01-24T13:54:57;163.10;;;8.60;;
5630;SDS011;2837;50.990;7.124;2023-01-24T13:57:36;159.23;;;7.80;;
5630;SDS011;2837;50.990;7.124;2023-01-24T14:02:41;160.30;;;8.40;;
5630;SDS011;2837;50.990;7.124;2023-01-24T14:07:54;160.10;;;8.20;;
5630;SDS011;2837;50.990;7.124;2023-01-24T14:10:34;160.27;;;8.30;;
5630;SDS011;2837;50.990;7.124;2023-01-24T14:13:04;159.53;;;7.93;;
5630;SDS011;2837;50.990;7.124;2023-01-24T14:15:50;159.67;;;8.03;;
5630;SDS011;2837;50.990;7.124;2023-01-24T14:21:14;160.27;;;8.00;;
5630;SDS011;2837;50.990;7.124;2023-01-24T14:24:02;159.17;;;7.70;;
5630;SDS011;2837;50.990;7.124;2023-01-24T14:26:57;160.90;;;8.80;;
5630;SDS011;2837;50.990;7.124;2023-01-24T14:29:39;159.43;;;7.90;;
5630;SDS011;2837;50.990;7.124;2023-01-24T14:35:03;160.77;;;8.10;;
5630;SDS011;2837;50.990;7.124;2023-01-24T14:37:33;159.43;;;7.87;;
5630;SDS011;2837;50.990;7.124;2023-01-24T14:42:48;163.60;;;10.03;;
5630;SDS011;2837;50.990;7.124;2023-01-24T14:45:16;162.67;;;9.63;;
5630;SDS011;2837;50.990;7.124;2023-01-24T14:47:45;159.17;;;7.60;;
5630;SDS011;2837;50.990;7.124;2023-01-24T14:50:20;161.57;;;8.20;;
5630;SDS011;2837;50.990;7.124;2023-01-24T14:52:54;160.93;;;8.80;;
5630;SDS011;2837;50.990;7.124;2023-01-24T14:57:52;159.97;;;8.17;;
5630;SDS011;2837;50.990;7.124;2023-01-24T15:00:18;160.33;;;7.87;;
5630;SDS011;2837;50.990;7.124;2023-01-24T15:02:52;160.47;;;8.57;;
5630;SDS011;2837;50.990;7.124;2023-01-24T15:05:33;160.30;;;8.30;;
5630;SDS011;2837;50.990;7.124;2023-01-24T15:08:02;159.97;;;8.20;;
5630;SDS011;2837;50.990;7.124;2023-01-24T15:10:39;162.47;;;8.27;;
5630;SDS011;2837;50.990;7.124;2023-01-24T15:13:10;163.03;;;9.87;;
5630;SDS011;2837;50.990;7.124;2023-01-24T15:15:44;161.17;;;8.53;;
5630;SDS011;2837;50.990;7.124;2023-01-24T15:18:25;161.87;;;9.53;;
5630;SDS011;2837;50.990;7.124;2023-01-24T15:21:14;162.20;;;8.37;;
5630;SDS011;2837;50.990;7.124;2023-01-24T15:23:47;160.43;;;8.43;;
5630;SDS011;2837;50.990;7.124;2023-01-24T15:26:24;161.97;;;8.80;;
5630;SDS011;2837;50.990;7.124;2023-01-24T15:34:46;162.30;;;8.77;;
5630;SDS011;2837;50.990;7.124;2023-01-24T15:37:13;161.07;;;8.57;;
5630;SDS011;2837;50.990;7.124;2023-01-24T15:39:40;162.37;;;10.40;;
5630;SDS011;2837;50.990;7.124;2023-01-24T15:42:16;160.60;;;8.10;;
5630;SDS011;2837;50.990;7.124;2023-01-24T15:45:02;159.40;;;7.80;;
5630;SDS011;2837;50.990;7.124;2023-01-24T15:47:29;160.27;;;8.50;;
5630;SDS011;2837;50.990;7.124;2023-01-24T15:50:19;160.53;;;8.53;;
5630;SDS011;2837;50.990;7.124;2023-01-24T15:53:18;161.07;;;8.43;;
5630;SDS011;2837;50.990;7.124;2023-01-24T15:55:51;161.00;;;9.23;;
5630;SDS011;2837;50.990;7.124;2023-01-24T15:58:17;163.93;;;9.47;;
5630;SDS011;2837;50.990;7.124;2023-01-24T16:00:53;161.67;;;9.27;;
5630;SDS011;2837;50.990;7.124;2023-01-24T16:03:20;161.63;;;8.80;;
5630;SDS011;2837;50.990;7.124;2023-01-24T16:05:47;160.53;;;8.97;;
5630;SDS011;2837;50.990;7.124;2023-01-24T16:08:12;162.17;;;9.53;;
5630;SDS011;2837;50.990;7.124;2023-01-24T16:10:38;160.70;;;8.30;;
5630;SDS011;2837;50.990;7.124;2023-01-24T16:13:04;160.57;;;8.73;;
5630;SDS011;2837;50.990;7.124;2023-01-24T16:15:30;161.30;;;8.57;;
5630;SDS011;2837;50.990;7.124;2023-01-24T16:17:56;164.17;;;9.50;;
5630;SDS011;2837;50.990;7.124;2023-01-24T16:20:25;161.77;;;9.13;;
5630;SDS011;2837;50.990;7.124;2023-01-24T16:22:52;162.87;;;9.00;;
5630;SDS011;2837;50.990;7.124;2023-01-24T16:25:19;160.87;;;8.50;;
5630;SDS011;2837;50.990;7.124;2023-01-24T16:27:45;164.00;;;9.50;;
5630;SDS011;2837;50.990;7.124;2023-01-24T16:30:16;166.20;;;9.70;;
5630;SDS011;2837;50.990;7.124;2023-01-24T16:32:46;163.30;;;9.40;;
5630;SDS011;2837;50.990;7.124;2023-01-24T16:35:15;161.77;;;9.03;;
5630;SDS011;2837;50.990;7.124;2023-01-24T16:37:41;160.90;;;8.87;;
5630;SDS011;2837;50.990;7.124;2023-01-24T16:40:10;161.40;;;8.67;;
5630;SDS011;2837;50.990;7.124;2023-01-24T16:42:38;161.43;;;8.60;;
5630;SDS011;2837;50.990;7.124;2023-01-24T16:45:05;161.97;;;9.20;;
5630;SDS011;2837;50.990;7.124;2023-01-24T16:47:31;161.57;;;8.87;;
5630;SDS011;2837;50.990;7.124;2023-01-24T16:49:57;162.40;;;9.40;;
5630;SDS011;2837;50.990;7.124;2023-01-24T16:52:24;161.17;;;9.07;;
5630;SDS011;2837;50.990;7.124;2023-01-24T16:54:50;160.77;;;8.87;;
5630;SDS011;2837;50.990;7.124;2023-01-24T16:57:17;162.27;;;9.10;;
5630;SDS011;2837;50.990;7.124;2023-01-24T16:59:43;161.70;;;8.70;;
5630;SDS011;2837;50.990;7.124;2023-01-24T17:02:09;161.97;;;9.13;;
5630;SDS011;2837;50.990;7.124;2023-01-24T17:04:35;161.97;;;8.53;;
5630;SDS011;2837;50.990;7.124;2023-01-24T17:07:01;160.77;;;9.10;;
5630;SDS011;2837;50.990;7.124;2023-01-24T17:09:28;161.50;;;7.90;;
5630;SDS011;2837;50.990;7.124;2023-01-24T17:11:54;161.80;;;8.77;;
5630;SDS011;2837;50.990;7.124;2023-01-24T17:14:20;162.90;;;9.40;;
5630;SDS011;2837;50.990;7.124;2023-01-24T17:16:46;161.50;;;9.17;;
5630;SDS011;2837;50.990;7.124;2023-01-24T17:19:12;161.87;;;9.10;;
5630;SDS011;2837;50.990;7.124;2023-01-24T17:21:38;161.93;;;8.80;;
5630;SDS011;2837;50.990;7.124;2023-01-24T17:24:04;161.57;;;9.23;;
5630;SDS011;2837;50.990;7.124;2023-01-24T17:26:30;161.50;;;8.63;;
5630;SDS011;2837;50.990;7.124;2023-01-24T17:28:55;162.37;;;8.80;;
5630;SDS011;2837;50.990;7.124;2023-01-24T17:31:22;163.50;;;9.60;;
5630;SDS011;2837;50.990;7.124;2023-01-24T17:33:47;161.27;;;8.70;;
5630;SDS011;2837;50.990;7.124;2023-01-24T17:36:14;164.20;;;9.90;;
5630;SDS011;2837;50.990;7.124;2023-01-24T17:38:40;177.50;;;16.17;;
5630;SDS011;2837;50.990;7.124;2023-01-24T17:41:16;162.47;;;9.47;;
5630;SDS011;2837;50.990;7.124;2023-01-24T17:43:47;162.87;;;9.10;;
5630;SDS011;2837;50.990;7.124;2023-01-24T17:46:13;162.27;;;9.30;;
5630;SDS011;2837;50.990;7.124;2023-01-24T17:48:39;161.07;;;9.27;;
5630;SDS011;2837;50.990;7.124;2023-01-24T17:51:09;163.20;;;9.93;;
5630;SDS011;2837;50.990;7.124;2023-01-24T17:53:37;163.07;;;10.00;;
5630;SDS011;2837;50.990;7.124;2023-01-24T17:56:04;161.30;;;8.20;;
5630;SDS011;2837;50.990;7.124;2023-01-24T17:58:30;162.90;;;9.30;;
5630;SDS011;2837;50.990;7.124;2023-01-24T18:00:56;162.50;;;8.83;;
5630;SDS011;2837;50.990;7.124;2023-01-24T18:03:22;162.27;;;8.57;;
5630;SDS011;2837;50.990;7.124;2023-01-24T18:05:51;161.87;;;8.87;;
5630;SDS011;2837;50.990;7.124;2023-01-24T18:08:17;161.23;;;9.43;;
5630;SDS011;2837;50.990;7.124;2023-01-24T18:10:44;163.67;;;10.20;;
5630;SDS011;2837;50.990;7.124;2023-01-24T18:13:09;162.40;;;9.40;;
5630;SDS011;2837;50.990;7.124;2023-01-24T18:15:35;161.67;;;9.13;;
5630;SDS011;2837;50.990;7.124;2023-01-24T18:18:01;163.20;;;10.10;;
5630;SDS011;2837;50.990;7.124;2023-01-24T18:20:27;163.10;;;9.27;;
5630;SDS011;2837;50.990;7.124;2023-01-24T18:22:53;161.77;;;9.00;;
5630;SDS011;2837;50.990;7.124;2023-01-24T18:25:19;162.37;;;9.63;;
5630;SDS011;2837;50.990;7.124;2023-01-24T18:27:45;163.47;;;9.60;;
5630;SDS011;2837;50.990;7.124;2023-01-24T18:30:11;163.23;;;9.50;;
5630;SDS011;2837;50.990;7.124;2023-01-24T18:32:37;162.57;;;9.70;;
5630;SDS011;2837;50.990;7.124;2023-01-24T18:35:03;162.70;;;8.77;;
5630;SDS011;2837;50.990;7.124;2023-01-24T18:37:28;162.70;;;9.90;;
5630;SDS011;2837;50.990;7.124;2023-01-24T18:39:54;164.60;;;9.83;;
5630;SDS011;2837;50.990;7.124;2023-01-24T18:42:20;161.37;;;9.00;;
5630;SDS011;2837;50.990;7.124;2023-01-24T18:44:45;162.33;;;9.53;;
5630;SDS011;2837;50.990;7.124;2023-01-24T18:47:11;169.20;;;9.73;;
5630;SDS011;2837;50.990;7.124;2023-01-24T18:49:36;161.97;;;9.10;;
5630;SDS011;2837;50.990;7.124;2023-01-24T18:52:02;162.03;;;9.20;;
5630;SDS011;2837;50.990;7.124;2023-01-24T18:54:27;163.17;;;10.17;;
5630;SDS011;2837;50.990;7.124;2023-01-24T18:56:53;163.67;;;10.40;;
5630;SDS011;2837;50.990;7.124;2023-01-24T18:59:19;165.27;;;9.47;;
5630;SDS011;2837;50.990;7.124;2023-01-24T19:01:44;163.77;;;10.13;;
5630;SDS011;2837;50.990;7.124;2023-01-24T19:04:10;162.97;;;9.37;;
5630;SDS011;2837;50.990;7.124;2023-01-24T19:06:36;163.03;;;9.77;;
5630;SDS011;2837;50.990;7.124;2023-01-24T19:09:03;164.20;;;9.70;;
5630;SDS011;2837;50.990;7.124;2023-01-24T19:11:34;162.83;;;9.90;;
5630;SDS011;2837;50.990;7.124;2023-01-24T19:14:02;163.67;;;9.83;;
5630;SDS011;2837;50.990;7.124;2023-01-24T19:16:29;162.63;;;10.07;;
5630;SDS011;2837;50.990;7.124;2023-01-24T19:18:57;162.13;;;9.13;;
5630;SDS011;2837;50.990;7.124;2023-01-24T19:21:23;163.40;;;9.47;;
5630;SDS011;2837;50.990;7.124;2023-01-24T19:23:51;164.27;;;10.10;;
5630;SDS011;2837;50.990;7.124;2023-01-24T19:26:17;162.83;;;9.97;;
5630;SDS011;2837;50.990;7.124;2023-01-24T19:28:43;163.23;;;9.67;;
5630;SDS011;2837;50.990;7.124;2023-01-24T19:31:08;164.47;;;10.30;;
5630;SDS011;2837;50.990;7.124;2023-01-24T19:33:35;163.97;;;10.27;;
5630;SDS011;2837;50.990;7.124;2023-01-24T19:36:04;166.93;;;10.20;;
5630;SDS011;2837;50.990;7.124;2023-01-24T19:38:31;163.67;;;8.97;;
5630;SDS011;2837;50.990;7.124;2023-01-24T19:41:00;163.17;;;9.90;;
5630;SDS011;2837;50.990;7.124;2023-01-24T19:43:30;161.87;;;9.27;;
5630;SDS011;2837;50.990;7.124;2023-01-24T19:45:56;163.77;;;10.00;;
5630;SDS011;2837;50.990;7.124;2023-01-24T19:48:22;164.17;;;10.10;;
5630;SDS011;2837;50.990;7.124;2023-01-24T19:50:47;163.03;;;10.20;;
5630;SDS011;2837;50.990;7.124;2023-01-24T19:53:13;163.07;;;10.00;;
5630;SDS011;2837;50.990;7.124;2023-01-24T19:55:38;163.43;;;10.30;;
5630;SDS011;2837;50.990;7.124;2023-01-24T19:58:05;164.83;;;10.30;;
5630;SDS011;2837;50.990;7.124;2023-01-24T20:00:34;166.10;;;10.90;;
5630;SDS011;2837;50.990;7.124;2023-01-24T20:03:00;163.97;;;10.10;;
5630;SDS011;2837;50.990;7.124;2023-01-24T20:05:26;165.30;;;11.17;;
5630;SDS011;2837;50.990;7.124;2023-01-24T20:07:53;165.77;;;11.23;;
5630;SDS011;2837;50.990;7.124;2023-01-24T20:10:21;163.57;;;10.30;;
5630;SDS011;2837;50.990;7.124;2023-01-24T20:12:47;164.90;;;10.60;;
5630;SDS011;2837;50.990;7.124;2023-01-24T20:15:15;170.10;;;12.23;;
5630;SDS011;2837;50.990;7.124;2023-01-24T20:17:41;165.97;;;11.77;;
5630;SDS011;2837;50.990;7.124;2023-01-24T20:20:06;164.23;;;10.47;;
5630;SDS011;2837;50.990;7.124;2023-01-24T20:22:33;163.70;;;9.70;;
5630;SDS011;2837;50.990;7.124;2023-01-24T20:24:58;164.30;;;10.20;;
5630;SDS011;2837;50.990;7.124;2023-01-24T20:27:24;163.30;;;9.90;;
5630;SDS011;2837;50.990;7.124;2023-01-24T20:29:50;164.30;;;9.83;;
5630;SDS011;2837;50.990;7.124;2023-01-24T20:32:15;163.97;;;10.30;;
5630;SDS011;2837;50.990;7.124;2023-01-24T20:34:41;162.27;;;9.17;;
5630;SDS011;2837;50.990;7.124;2023-01-24T20:37:10;162.83;;;9.33;;
5630;SDS011;2837;50.990;7.124;2023-01-24T20:39:36;163.17;;;9.67;;
5630;SDS011;2837;50.990;7.124;2023-01-24T20:42:02;162.27;;;9.37;;
5630;SDS011;2837;50.990;7.124;2023-01-24T20:44:27;162.00;;;8.90;;
5630;SDS011;2837;50.990;7.124;2023-01-24T20:46:54;163.00;;;9.33;;
5630;SDS011;2837;50.990;7.124;2023-01-24T20:49:20;164.40;;;9.90;;
5630;SDS011;2837;50.990;7.124;2023-01-24T20:51:46;161.97;;;9.40;;
5630;SDS011;2837;50.990;7.124;2023-01-24T20:54:11;163.00;;;8.97;;
5630;SDS011;2837;50.990;7.124;2023-01-24T20:56:37;163.87;;;9.83;;
5630;SDS011;2837;50.990;7.124;2023-01-24T20:59:03;163.47;;;9.90;;
5630;SDS011;2837;50.990;7.124;2023-01-24T21:01:29;164.33;;;10.07;;
5630;SDS011;2837;50.990;7.124;2023-01-24T21:04:02;163.73;;;10.03;;
5630;SDS011;2837;50.990;7.124;2023-01-24T21:06:31;166.07;;;11.20;;
5630;SDS011;2837;50.990;7.124;2023-01-24T21:08:59;164.37;;;9.90;;
5630;SDS011;2837;50.990;7.124;2023-01-24T21:11:26;174.63;;;9.90;;
5630;SDS011;2837;50.990;7.124;2023-01-24T21:14:05;164.17;;;10.90;;
5630;SDS011;2837;50.990;7.124;2023-01-24T21:16:35;163.47;;;10.10;;
5630;SDS011;2837;50.990;7.124;2023-01-24T21:19:03;165.23;;;10.87;;
5630;SDS011;2837;50.990;7.124;2023-01-24T21:21:30;163.77;;;10.60;;
5630;SDS011;2837;50.990;7.124;2023-01-24T21:23:56;163.70;;;10.10;;
5630;SDS011;2837;50.990;7.124;2023-01-24T21:26:23;163.70;;;10.30;;
5630;SDS011;2837;50.990;7.124;2023-01-24T21:28:49;164.27;;;10.50;;
5630;SDS011;2837;50.990;7.124;2023-01-24T21:31:16;163.47;;;10.10;;
5630;SDS011;2837;50.990;7.124;2023-01-24T21:33:44;164.70;;;10.17;;
5630;SDS011;2837;50.990;7.124;2023-01-24T21:36:14;162.67;;;9.43;;
5630;SDS011;2837;50.990;7.124;2023-01-24T21:38:42;163.80;;;9.90;;
5630;SDS011;2837;50.990;7.124;2023-01-24T21:41:10;165.67;;;9.80;;
5630;SDS011;2837;50.990;7.124;2023-01-24T21:43:55;163.43;;;9.80;;
5630;SDS011;2837;50.990;7.124;2023-01-24T21:46:21;164.40;;;9.97;;
5630;SDS011;2837;50.990;7.124;2023-01-24T21:48:46;164.97;;;9.40;;
5630;SDS011;2837;50.990;7.124;2023-01-24T21:51:35;163.37;;;9.70;;
5630;SDS011;2837;50.990;7.124;2023-01-24T21:54:07;163.70;;;9.50;;
5630;SDS011;2837;50.990;7.124;2023-01-24T21:56:37;163.30;;;8.90;;
5630;SDS011;2837;50.990;7.124;2023-01-24T21:59:22;162.87;;;9.40;;
